Terminal Aerodrome Forecast
Issued by NWS

Home | Current Version | Previous Version | Text Only | Print | Product List | Glossary Off
Versions: 1 2 3 4 5 6 7 8 9 10 11 12 13 14 15

810
FTUS43 KMPX 221449 AAA
TAFRWF
TAF AMD
KRWF 221449Z 2215/2312 10005KT 6SM -SHRA BR VCTS BKN060CB
      TEMPO 2215/2216 3SM TSRA BR OVC050CB
     FM221800 02007KT 6SM -SHRA BR OVC050
      TEMPO 2218/2221 4SM TSRA OVC025CB
     FM222100 01005KT 6SM -SHRA BR VCTS BKN060CB
     FM230000 29006KT P6SM BKN120
     FM230600 29006KT P6SM FEW200=

USA.gov is the U.S. government's official web portal to all federal, state and local government web resources and services.